createdAt,value
2023-06-25T00:00:35.538Z,85.30
2023-06-25T00:03:03.320Z,85.30
2023-06-25T00:05:30.829Z,85.20
2023-06-25T00:07:58.620Z,85.40
2023-06-25T00:10:26.072Z,85.30
2023-06-25T00:12:53.485Z,85.30
2023-06-25T00:15:21.001Z,85.40
2023-06-25T00:17:49.010Z,85.70
2023-06-25T00:20:18.597Z,85.80
2023-06-25T00:23:04.927Z,86.30
2023-06-25T00:25:34.069Z,86.50
2023-06-25T00:28:02.329Z,86.30
2023-06-25T00:30:30.405Z,87.30
2023-06-25T00:32:58.066Z,86.80
2023-06-25T00:35:28.668Z,86.80
2023-06-25T00:37:58.145Z,86.80
2023-06-25T00:40:26.728Z,86.90
2023-06-25T00:43:00.186Z,86.90
2023-06-25T00:45:28.091Z,87.00
2023-06-25T00:47:56.390Z,87.20
2023-06-25T00:50:24.937Z,87.70
2023-06-25T00:52:53.372Z,87.70
2023-06-25T00:55:21.575Z,88.20
2023-06-25T00:57:49.451Z,88.30
2023-06-25T01:00:21.121Z,88.20
2023-06-25T01:03:05.380Z,88.30
2023-06-25T01:05:40.231Z,88.40
2023-06-25T01:08:12.647Z,88.40
2023-06-25T01:10:40.522Z,88.70
2023-06-25T01:13:08.136Z,88.70
2023-06-25T01:15:36.072Z,88.80
2023-06-25T01:18:05.909Z,89.10
2023-06-25T01:20:33.613Z,89.60
2023-06-25T01:23:01.236Z,89.40
2023-06-25T01:25:28.723Z,89.60
2023-06-25T01:27:56.185Z,89.50
2023-06-25T01:30:26.582Z,89.70
2023-06-25T01:32:54.294Z,89.20
2023-06-25T01:35:21.782Z,89.20
2023-06-25T01:37:49.242Z,89.50
2023-06-25T01:40:17.616Z,89.60
2023-06-25T01:42:45.170Z,89.90
2023-06-25T01:45:12.948Z,89.70
2023-06-25T01:47:42.460Z,90.10
2023-06-25T01:50:10.263Z,90.10
2023-06-25T01:52:39.234Z,89.70
2023-06-25T01:55:07.401Z,89.40
2023-06-25T01:57:34.832Z,89.30
2023-06-25T02:00:02.505Z,89.30
2023-06-25T02:02:30.483Z,89.40
2023-06-25T02:04:58.105Z,89.30
2023-06-25T02:07:25.595Z,89.40
2023-06-25T02:09:53.200Z,89.60
2023-06-25T02:12:20.772Z,89.60
2023-06-25T02:14:48.212Z,89.60
2023-06-25T02:17:15.710Z,90.20
2023-06-25T02:19:43.188Z,89.70
2023-06-25T02:22:10.646Z,89.60
2023-06-25T02:24:38.111Z,89.40
2023-06-25T02:27:06.156Z,89.60
2023-06-25T02:29:33.656Z,89.60
2023-06-25T02:32:01.076Z,89.50
2023-06-25T02:34:28.643Z,89.60
2023-06-25T02:36:56.117Z,89.80
2023-06-25T02:39:23.640Z,90.00
2023-06-25T02:41:51.179Z,90.00
2023-06-25T02:44:18.680Z,90.00
2023-06-25T02:46:46.411Z,90.00
2023-06-25T02:49:14.464Z,90.00
2023-06-25T02:51:42.114Z,89.90
2023-06-25T02:54:09.762Z,89.90
2023-06-25T02:56:37.615Z,89.80
2023-06-25T02:59:05.052Z,89.70
2023-06-25T03:01:32.726Z,89.80
2023-06-25T03:04:00.313Z,89.70
2023-06-25T03:06:27.785Z,89.60
2023-06-25T03:08:55.355Z,89.40
2023-06-25T03:11:22.790Z,89.40
2023-06-25T03:13:50.418Z,89.30
2023-06-25T03:16:17.860Z,89.10
2023-06-25T03:18:45.808Z,89.30
2023-06-25T03:21:13.477Z,89.30
2023-06-25T03:23:41.797Z,90.00
2023-06-25T03:26:09.373Z,90.00
2023-06-25T03:28:37.007Z,90.00
2023-06-25T03:31:04.757Z,89.90
2023-06-25T03:33:40.970Z,89.80
2023-06-25T03:36:09.303Z,89.60
2023-06-25T03:38:36.779Z,89.40
2023-06-25T03:41:04.498Z,89.40
2023-06-25T03:43:32.465Z,89.40
2023-06-25T03:46:00.170Z,89.40
2023-06-25T03:48:28.145Z,89.80
2023-06-25T03:50:55.728Z,89.60
2023-06-25T03:53:23.279Z,89.80
2023-06-25T03:55:50.866Z,89.70
2023-06-25T03:58:18.381Z,90.60
2023-06-25T04:00:46.226Z,90.00
2023-06-25T04:03:13.916Z,89.70
2023-06-25T04:05:41.532Z,90.10
2023-06-25T04:08:09.819Z,89.30
2023-06-25T04:10:37.581Z,89.00
2023-06-25T04:13:05.094Z,88.90
2023-06-25T04:15:32.675Z,88.80
2023-06-25T04:18:00.284Z,88.50
2023-06-25T04:20:29.106Z,88.50
2023-06-25T04:22:56.631Z,88.40
2023-06-25T04:25:24.331Z,90.80
2023-06-25T04:27:56.147Z,90.60
2023-06-25T04:30:23.819Z,90.30
2023-06-25T04:32:52.465Z,91.40
2023-06-25T04:35:23.104Z,90.80
2023-06-25T04:37:50.860Z,91.70
2023-06-25T04:40:18.882Z,90.30
2023-06-25T04:42:46.545Z,91.40
2023-06-25T04:45:15.503Z,89.00
2023-06-25T04:47:43.100Z,87.10
2023-06-25T04:50:11.297Z,85.60
2023-06-25T04:52:38.814Z,85.60
2023-06-25T04:55:07.171Z,86.40
2023-06-25T04:57:34.591Z,84.20
2023-06-25T05:00:02.045Z,79.30
2023-06-25T05:02:29.523Z,75.30
2023-06-25T05:04:56.987Z,73.30
2023-06-25T05:09:52.179Z,68.60
2023-06-25T05:12:19.679Z,66.90
2023-06-25T05:14:47.165Z,68.70
2023-06-25T05:17:14.728Z,66.00
2023-06-25T05:19:42.233Z,65.00
2023-06-25T05:22:09.759Z,62.40
2023-06-25T05:24:37.216Z,64.00
2023-06-25T05:27:05.097Z,64.40
2023-06-25T05:29:32.593Z,64.10
2023-06-25T05:32:00.267Z,60.20
2023-06-25T05:34:27.796Z,61.60
2023-06-25T05:36:55.438Z,60.80
2023-06-25T05:39:29.768Z,59.30
2023-06-25T05:41:58.973Z,60.00
2023-06-25T05:44:27.299Z,59.10
2023-06-25T05:46:56.160Z,58.70
2023-06-25T05:51:52.304Z,60.10
2023-06-25T05:54:19.769Z,57.50
2023-06-25T05:56:47.252Z,57.70
2023-06-25T05:59:14.758Z,56.30
2023-06-25T06:01:42.212Z,54.90
2023-06-25T06:04:09.636Z,56.50
2023-06-25T06:06:37.066Z,55.90
2023-06-25T06:09:04.511Z,57.00
2023-06-25T06:11:32.581Z,54.50
2023-06-25T06:14:00.085Z,55.80
2023-06-25T06:16:27.592Z,55.40
2023-06-25T06:18:55.097Z,55.80
2023-06-25T06:21:22.518Z,55.10
2023-06-25T06:23:50.038Z,53.60
2023-06-25T06:26:17.586Z,52.40
2023-06-25T06:28:45.239Z,52.30
2023-06-25T06:31:12.800Z,53.80
2023-06-25T06:33:40.334Z,54.20
2023-06-25T06:36:07.836Z,53.60
2023-06-25T06:38:35.290Z,55.00
2023-06-25T06:41:02.762Z,53.20
2023-06-25T06:43:30.750Z,52.70
2023-06-25T06:45:58.435Z,50.00
2023-06-25T06:48:25.905Z,50.10
2023-06-25T06:50:53.476Z,49.40
2023-06-25T06:53:20.898Z,51.20
2023-06-25T06:55:48.382Z,50.70
2023-06-25T06:58:15.918Z,51.40
2023-06-25T07:00:43.545Z,50.10
2023-06-25T07:03:11.013Z,48.80
2023-06-25T07:05:38.711Z,48.70
2023-06-25T07:08:06.710Z,51.00
2023-06-25T07:10:34.224Z,47.80
2023-06-25T07:13:01.686Z,49.20
2023-06-25T07:15:29.126Z,50.00
2023-06-25T07:17:56.925Z,49.80
2023-06-25T07:20:24.421Z,48.60
2023-06-25T07:22:52.120Z,47.90
2023-06-25T07:25:19.593Z,50.50
2023-06-25T07:27:47.093Z,49.70
2023-06-25T07:30:14.784Z,49.40
2023-06-25T07:32:42.280Z,50.50
2023-06-25T07:35:10.111Z,49.80
2023-06-25T07:37:38.753Z,49.10
2023-06-25T07:40:07.268Z,51.10
2023-06-25T07:42:34.769Z,51.50
2023-06-25T07:45:02.303Z,53.50
2023-06-25T07:47:30.023Z,52.60
2023-06-25T07:49:57.515Z,52.70
2023-06-25T07:52:25.013Z,52.10
2023-06-25T07:54:52.515Z,52.40
2023-06-25T07:57:19.944Z,51.20
2023-06-25T07:59:54.030Z,49.90
2023-06-25T08:02:22.730Z,49.80
2023-06-25T08:04:51.221Z,48.80
2023-06-25T08:07:19.008Z,50.90
2023-06-25T08:09:47.548Z,48.50
2023-06-25T08:12:15.992Z,49.60
2023-06-25T08:14:44.510Z,48.90
2023-06-25T08:17:12.188Z,49.30
2023-06-25T08:19:39.723Z,49.20
2023-06-25T08:22:07.250Z,48.60
2023-06-25T08:24:34.866Z,48.80
2023-06-25T08:27:02.365Z,50.20
2023-06-25T08:29:30.662Z,51.10
2023-06-25T08:34:26.159Z,54.40
2023-06-25T08:36:53.701Z,53.70
2023-06-25T08:39:21.222Z,54.90
2023-06-25T08:41:50.481Z,54.00
2023-06-25T08:44:17.961Z,54.70
2023-06-25T08:46:48.820Z,55.00
2023-06-25T08:49:17.871Z,57.20
2023-06-25T08:51:45.494Z,57.80
2023-06-25T08:54:13.216Z,58.30
2023-06-25T08:56:41.095Z,57.20
2023-06-25T08:59:08.607Z,59.00
2023-06-25T09:01:36.501Z,58.70
2023-06-25T09:04:03.947Z,57.10
2023-06-25T09:06:50.798Z,56.80
2023-06-25T09:09:26.353Z,56.10
2023-06-25T09:11:54.964Z,57.30
2023-06-25T09:14:22.435Z,57.20
2023-06-25T09:16:51.417Z,57.40
2023-06-25T09:19:22.592Z,60.00
2023-06-25T09:21:50.518Z,59.60
2023-06-25T09:24:20.368Z,59.70
2023-06-25T09:26:53.495Z,58.50
2023-06-25T09:29:22.903Z,59.90
2023-06-25T09:31:50.887Z,56.70
2023-06-25T09:34:19.701Z,57.30
2023-06-25T09:36:47.590Z,57.70
2023-06-25T09:39:15.161Z,57.90
2023-06-25T09:41:43.355Z,58.50
2023-06-25T09:44:11.702Z,59.60
2023-06-25T09:46:40.925Z,61.90
2023-06-25T09:49:09.004Z,61.20
2023-06-25T09:51:59.984Z,63.90
2023-06-25T09:54:29.418Z,62.10
2023-06-25T09:57:01.267Z,59.50
2023-06-25T09:59:28.998Z,60.20
2023-06-25T10:01:56.556Z,59.30
2023-06-25T10:04:24.298Z,61.10
2023-06-25T10:06:52.184Z,73.10
2023-06-25T10:09:19.749Z,66.00
2023-06-25T10:11:55.750Z,66.30
2023-06-25T10:14:24.225Z,70.00
2023-06-25T10:16:56.669Z,63.30
2023-06-25T10:19:25.899Z,64.00
2023-06-25T10:22:25.600Z,58.60
2023-06-25T10:24:55.638Z,58.10
2023-06-25T10:27:32.447Z,62.50
2023-06-25T10:30:00.071Z,59.00
2023-06-25T10:32:30.019Z,58.50
2023-06-25T10:35:01.434Z,62.00
2023-06-25T10:37:32.952Z,63.10
2023-06-25T10:40:08.728Z,60.20
2023-06-25T10:42:40.039Z,65.00
2023-06-25T10:45:08.529Z,62.60
2023-06-25T10:47:36.359Z,61.80
2023-06-25T10:50:04.091Z,64.10
2023-06-25T10:52:31.705Z,65.30
2023-06-25T10:55:01.697Z,61.50
2023-06-25T10:57:32.749Z,61.50
2023-06-25T11:00:00.635Z,61.40
2023-06-25T11:02:28.202Z,62.40
2023-06-25T11:04:57.840Z,62.60
2023-06-25T11:07:28.962Z,63.40
2023-06-25T11:10:00.769Z,64.00
2023-06-25T11:12:30.696Z,63.50
2023-06-25T11:15:00.026Z,63.80
2023-06-25T11:17:28.111Z,64.70
2023-06-25T11:19:57.573Z,64.10
2023-06-25T11:22:27.451Z,61.10
2023-06-25T11:24:55.087Z,61.00
2023-06-25T11:27:28.227Z,61.90
2023-06-25T11:29:55.899Z,63.10
2023-06-25T11:32:25.386Z,63.40
2023-06-25T11:34:52.953Z,61.90
2023-06-25T11:37:20.714Z,60.80
2023-06-25T11:39:52.941Z,61.30
2023-06-25T11:42:25.311Z,63.10
2023-06-25T11:44:59.847Z,63.50
2023-06-25T11:47:27.534Z,63.30
2023-06-25T11:49:59.591Z,63.00
2023-06-25T11:52:27.005Z,63.00
2023-06-25T11:54:54.467Z,62.70
2023-06-25T11:57:21.962Z,61.60
2023-06-25T11:59:49.805Z,60.70
2023-06-25T12:02:17.286Z,60.50
2023-06-25T12:04:44.788Z,59.30
2023-06-25T12:07:12.290Z,60.90
2023-06-25T12:09:39.903Z,61.90
2023-06-25T12:12:07.792Z,61.30
2023-06-25T12:14:35.207Z,61.00
2023-06-25T12:17:03.854Z,61.60
2023-06-25T12:19:31.341Z,59.70
2023-06-25T12:21:59.831Z,60.10
2023-06-25T12:24:27.269Z,62.40
2023-06-25T12:26:55.892Z,62.70
2023-06-25T12:29:23.422Z,61.70
2023-06-25T12:31:50.896Z,61.40
2023-06-25T12:34:18.440Z,60.30
2023-06-25T12:36:45.916Z,61.70
2023-06-25T12:39:13.400Z,60.00
2023-06-25T12:41:40.985Z,62.10
2023-06-25T12:44:08.521Z,63.00
2023-06-25T12:46:36.002Z,61.50
2023-06-25T12:49:03.523Z,59.40
2023-06-25T12:51:31.070Z,59.80
2023-06-25T12:53:58.581Z,62.80
2023-06-25T12:56:28.251Z,62.60
2023-06-25T12:58:55.790Z,62.30
2023-06-25T13:01:23.455Z,62.80
2023-06-25T13:03:52.360Z,64.00
2023-06-25T13:06:21.575Z,62.50
2023-06-25T13:08:49.073Z,62.70
2023-06-25T13:11:16.730Z,60.80
2023-06-25T13:13:44.406Z,61.50
2023-06-25T13:16:13.539Z,61.30
2023-06-25T13:18:42.538Z,60.70
2023-06-25T13:21:10.592Z,61.20
2023-06-25T13:23:38.997Z,60.00
2023-06-25T13:26:06.452Z,62.10
2023-06-25T13:28:33.997Z,60.50
2023-06-25T13:31:01.469Z,62.20
2023-06-25T13:33:30.333Z,61.30
2023-06-25T13:35:58.056Z,60.80
2023-06-25T13:38:25.523Z,61.40
2023-06-25T13:40:53.104Z,61.80
2023-06-25T13:43:20.577Z,60.40
2023-06-25T13:45:48.127Z,60.70
2023-06-25T13:48:15.685Z,59.70
2023-06-25T13:50:43.233Z,60.10
2023-06-25T13:53:10.714Z,59.50
2023-06-25T13:55:38.446Z,61.10
2023-06-25T13:58:06.099Z,61.60
2023-06-25T14:00:33.564Z,61.10
2023-06-25T14:03:11.093Z,62.00
2023-06-25T14:05:40.138Z,60.90
2023-06-25T14:08:08.241Z,60.40
2023-06-25T14:10:35.797Z,61.30
2023-06-25T14:13:04.084Z,59.90
2023-06-25T14:15:31.530Z,59.30
2023-06-25T14:17:58.960Z,59.60
2023-06-25T14:20:26.444Z,60.20
2023-06-25T14:22:53.903Z,59.60
2023-06-25T14:25:21.434Z,59.60
2023-06-25T14:27:48.831Z,59.20
2023-06-25T14:30:17.324Z,59.60
2023-06-25T14:32:44.820Z,61.00
2023-06-25T14:35:12.335Z,59.20
2023-06-25T14:37:39.829Z,59.50
2023-06-25T14:40:08.278Z,59.50
2023-06-25T14:42:36.209Z,59.20
2023-06-25T14:45:05.246Z,59.10
2023-06-25T14:47:33.674Z,58.80
2023-06-25T14:50:01.732Z,58.70
2023-06-25T14:52:29.295Z,58.00
2023-06-25T14:54:56.751Z,59.20
2023-06-25T14:57:24.285Z,59.80
2023-06-25T14:59:52.284Z,58.40
2023-06-25T15:02:20.198Z,58.70
2023-06-25T15:04:49.693Z,59.80
2023-06-25T15:07:21.296Z,62.10
2023-06-25T15:09:48.834Z,60.40
2023-06-25T15:12:16.293Z,59.80
2023-06-25T15:14:45.525Z,60.40
2023-06-25T15:17:13.331Z,60.50
2023-06-25T15:19:40.816Z,59.70
2023-06-25T15:22:08.284Z,57.70
2023-06-25T15:24:35.769Z,60.10
2023-06-25T15:27:03.448Z,60.20
2023-06-25T15:29:31.032Z,59.80
2023-06-25T15:31:59.856Z,59.80
2023-06-25T15:34:27.477Z,59.60
2023-06-25T15:36:54.932Z,59.40
2023-06-25T15:39:22.393Z,58.80
2023-06-25T15:41:50.039Z,58.40
2023-06-25T15:44:17.569Z,59.30
2023-06-25T15:46:45.045Z,59.80
2023-06-25T15:49:12.544Z,58.40
2023-06-25T15:51:42.153Z,59.00
2023-06-25T15:54:24.963Z,59.80
2023-06-25T15:56:53.562Z,59.50
2023-06-25T15:59:21.471Z,59.20
2023-06-25T16:01:49.168Z,57.60
2023-06-25T16:04:16.798Z,59.50
2023-06-25T16:06:44.327Z,58.70
2023-06-25T16:09:11.784Z,59.60
2023-06-25T16:11:39.703Z,59.40
2023-06-25T16:14:07.295Z,60.80
2023-06-25T16:16:35.282Z,61.40
2023-06-25T16:21:35.317Z,60.20
2023-06-25T16:24:02.770Z,60.50
2023-06-25T16:26:30.263Z,60.30
2023-06-25T16:28:57.694Z,60.20
2023-06-25T16:31:25.222Z,61.00
2023-06-25T16:33:52.724Z,61.20
2023-06-25T16:36:20.190Z,61.30
2023-06-25T16:38:47.721Z,61.40
2023-06-25T16:41:15.570Z,60.90
2023-06-25T16:43:42.998Z,60.10
2023-06-25T16:46:10.478Z,60.00
2023-06-25T16:48:38.008Z,59.30
2023-06-25T16:51:05.518Z,59.40
2023-06-25T16:53:33.140Z,60.10
2023-06-25T16:56:00.659Z,61.40
2023-06-25T16:58:28.109Z,60.80
2023-06-25T17:00:55.564Z,60.60
2023-06-25T17:03:23.265Z,59.60
2023-06-25T17:05:50.999Z,60.80
2023-06-25T17:08:18.499Z,60.30
2023-06-25T17:10:45.974Z,61.50
2023-06-25T17:13:13.505Z,61.70
2023-06-25T17:15:40.972Z,61.10
2023-06-25T17:18:08.471Z,60.30
2023-06-25T17:20:35.982Z,60.70
2023-06-25T17:23:05.693Z,60.60
2023-06-25T17:25:33.165Z,60.60
2023-06-25T17:28:00.704Z,61.60
2023-06-25T17:30:28.119Z,61.40
2023-06-25T17:32:55.721Z,61.20
2023-06-25T17:35:26.304Z,61.80
2023-06-25T17:37:53.806Z,61.40
2023-06-25T17:40:21.306Z,62.00
2023-06-25T17:42:48.788Z,61.60
2023-06-25T17:45:16.310Z,61.40
2023-06-25T17:47:46.817Z,60.20
2023-06-25T17:50:14.459Z,73.60
2023-06-25T17:52:41.930Z,76.50
2023-06-25T17:55:09.650Z,73.40
2023-06-25T17:57:37.093Z,82.20
2023-06-25T18:00:05.616Z,80.90
2023-06-25T18:02:41.896Z,84.10
2023-06-25T18:05:10.273Z,89.60
2023-06-25T18:07:37.766Z,82.20
2023-06-25T18:10:05.611Z,88.20
2023-06-25T18:12:34.080Z,84.40
2023-06-25T18:15:01.808Z,90.30
2023-06-25T18:17:29.369Z,89.00
2023-06-25T18:19:56.896Z,88.30
2023-06-25T18:22:24.381Z,90.40
2023-06-25T18:24:51.852Z,89.00
2023-06-25T18:27:20.855Z,91.40
2023-06-25T18:29:48.282Z,91.50
2023-06-25T18:32:15.733Z,95.70
2023-06-25T18:34:43.450Z,94.20
2023-06-25T18:37:10.895Z,92.90
2023-06-25T18:39:38.353Z,93.90
2023-06-25T18:42:06.051Z,94.50
2023-06-25T18:44:33.551Z,95.10
2023-06-25T18:47:01.078Z,94.20
2023-06-25T18:49:28.564Z,95.80
2023-06-25T18:51:56.045Z,96.70
2023-06-25T18:54:25.520Z,95.90
2023-06-25T18:56:52.997Z,97.20
2023-06-25T18:59:20.468Z,97.30
2023-06-25T19:01:47.965Z,97.60
2023-06-25T19:06:43.549Z,97.00
2023-06-25T19:09:12.395Z,99.70
2023-06-25T19:11:39.877Z,99.90
2023-06-25T19:14:07.797Z,99.90
2023-06-25T19:16:35.281Z,99.90
2023-06-25T19:19:02.748Z,99.90
2023-06-25T19:21:30.197Z,99.90
2023-06-25T19:23:57.703Z,99.90
2023-06-25T19:26:25.328Z,99.90
2023-06-25T19:28:52.939Z,99.90
2023-06-25T19:31:20.401Z,99.90
2023-06-25T19:33:47.917Z,99.90
2023-06-25T19:36:15.396Z,99.90
2023-06-25T19:38:42.972Z,99.90
2023-06-25T19:41:10.509Z,99.90
2023-06-25T19:43:39.127Z,99.90
2023-06-25T19:46:08.135Z,99.90
2023-06-25T19:48:35.882Z,99.90
2023-06-25T19:51:03.597Z,99.90
2023-06-25T19:53:33.701Z,99.90
2023-06-25T19:56:01.362Z,99.90
2023-06-25T19:58:28.886Z,99.90
2023-06-25T20:00:56.392Z,99.90
2023-06-25T20:03:23.917Z,99.90
2023-06-25T20:05:51.483Z,99.90
2023-06-25T20:08:19.064Z,99.90
2023-06-25T20:10:46.779Z,99.90
2023-06-25T20:13:14.378Z,99.90
2023-06-25T20:15:41.934Z,99.90
2023-06-25T20:18:09.411Z,99.90
2023-06-25T20:20:37.190Z,99.90
2023-06-25T20:23:04.938Z,99.90
2023-06-25T20:25:32.416Z,99.90
2023-06-25T20:27:59.871Z,99.90
2023-06-25T20:30:27.365Z,99.90
2023-06-25T20:32:55.453Z,99.90
2023-06-25T20:35:23.132Z,99.90
2023-06-25T20:37:50.683Z,99.90
2023-06-25T20:40:18.350Z,99.90
2023-06-25T20:42:45.844Z,99.90
2023-06-25T20:45:13.469Z,97.00
2023-06-25T20:47:42.543Z,97.40
2023-06-25T20:50:10.643Z,98.40
2023-06-25T20:52:38.218Z,99.90
2023-06-25T20:55:05.966Z,99.90
2023-06-25T20:57:33.458Z,99.90
2023-06-25T21:00:00.956Z,99.90
2023-06-25T21:02:28.483Z,98.80
2023-06-25T21:04:55.995Z,98.10
2023-06-25T21:07:23.473Z,98.30
2023-06-25T21:09:51.060Z,98.80
2023-06-25T21:12:18.692Z,97.30
2023-06-25T21:14:46.194Z,97.80
2023-06-25T21:17:13.686Z,98.30
2023-06-25T21:19:42.373Z,95.50
2023-06-25T21:22:09.840Z,94.70
2023-06-25T21:24:37.270Z,95.00
2023-06-25T21:27:04.908Z,93.90
2023-06-25T21:29:32.505Z,92.90
2023-06-25T21:31:59.925Z,93.00
2023-06-25T21:34:27.371Z,92.60
2023-06-25T21:36:54.820Z,92.30
2023-06-25T21:39:22.364Z,92.30
2023-06-25T21:41:49.763Z,92.40
2023-06-25T21:44:17.331Z,91.90
2023-06-25T21:46:44.878Z,91.70
2023-06-25T21:49:12.365Z,92.30
2023-06-25T21:51:39.857Z,91.90
2023-06-25T21:54:07.326Z,92.10
2023-06-25T21:56:34.772Z,92.30
2023-06-25T21:59:02.633Z,94.80
2023-06-25T22:01:30.146Z,93.60
2023-06-25T22:03:57.711Z,93.40
2023-06-25T22:06:25.210Z,93.00
2023-06-25T22:08:53.021Z,95.10
2023-06-25T22:11:20.468Z,93.70
2023-06-25T22:13:47.943Z,92.70
2023-06-25T22:16:15.833Z,93.40
2023-06-25T22:18:43.434Z,93.20
2023-06-25T22:21:10.920Z,95.00
2023-06-25T22:23:39.128Z,95.70
2023-06-25T22:26:06.582Z,94.90
2023-06-25T22:28:34.088Z,93.60
2023-06-25T22:31:01.542Z,95.00
2023-06-25T22:33:29.170Z,96.70
2023-06-25T22:35:56.699Z,98.40
2023-06-25T22:38:24.274Z,98.60
2023-06-25T22:40:51.834Z,95.30
2023-06-25T22:43:19.318Z,98.20
2023-06-25T22:45:46.866Z,98.70
2023-06-25T22:48:14.414Z,99.50
2023-06-25T22:50:41.892Z,95.90
2023-06-25T22:53:10.932Z,95.10
2023-06-25T22:55:38.499Z,94.50
2023-06-25T22:58:08.100Z,95.50
2023-06-25T23:00:37.459Z,97.40
2023-06-25T23:03:05.327Z,98.10
2023-06-25T23:05:32.828Z,97.80
2023-06-25T23:08:00.356Z,98.40
2023-06-25T23:10:27.871Z,99.30
2023-06-25T23:12:57.872Z,99.30
2023-06-25T23:15:25.488Z,99.80
2023-06-25T23:17:53.018Z,99.90
2023-06-25T23:20:20.791Z,99.10
2023-06-25T23:22:50.093Z,99.90
2023-06-25T23:25:29.154Z,99.70
2023-06-25T23:27:58.614Z,99.90
2023-06-25T23:30:27.358Z,99.90
2023-06-25T23:32:55.173Z,99.90
2023-06-25T23:35:22.648Z,99.90
2023-06-25T23:37:50.609Z,99.90
2023-06-25T23:40:18.057Z,99.90
2023-06-25T23:42:45.568Z,99.90
2023-06-25T23:45:13.112Z,99.90
2023-06-25T23:47:40.746Z,99.90
2023-06-25T23:50:08.472Z,99.90
2023-06-25T23:52:36.064Z,99.90
2023-06-25T23:55:03.505Z,99.90
2023-06-25T23:57:31.006Z,99.90
2023-06-25T23:59:58.461Z,99.90
